CheckWX is a tool to help pilots better visualize weather data.  It is not intended as a substitute for an official pre-flight weather briefing.

05:57:20 UTC

KLPC METAR
Lompoc Airport
Lompoc, California, USA
Current

1 hour ago

KLPC 200456Z AUTO 00000KT 10SM CLR 06/03 A3016 RMK AO2 SLP217 T00610028
Observed
Feb-20 @ 04:56 UTC
Visibility
16,093 meters
Flight Rules
VFR
Cloud Levels
  • Clear skies
Temperature
C / 43°F
Dewpoint
C / 37°F
Humidity
81%
Altimeter
30.16" Hg
Pressure
1021.7 hPa
Previous

2 hours ago

KLPC 200356Z AUTO 33003KT 10SM CLR 09/03 A3015 RMK AO2 SLP214 T00890028
Observed
Feb-20 @ 03:56 UTC
Wind
  • 330° at 3 KTS
Visibility
16,093 meters
Flight Rules
VFR
Cloud Levels
  • Clear skies
Temperature
C / 48°F
Dewpoint
C / 37°F
Humidity
66%
Altimeter
30.15" Hg
Pressure
1021.4 hPa
Previous

3 hours ago

KLPC 200256Z AUTO 34005KT 10SM CLR 09/03 A3015 RMK AO2 SLP214 T00940028 53009
Observed
Feb-20 @ 02:56 UTC
Wind
  • 340° at 5 KTS
Visibility
16,093 meters
Flight Rules
VFR
Cloud Levels
  • Clear skies
Temperature
C / 48°F
Dewpoint
C / 37°F
Humidity
66%
Altimeter
30.15" Hg
Pressure
1021.4 hPa